createdAt,value
2022-10-22T00:01:07.524Z,18.44
2022-10-22T00:03:07.628Z,18.43
2022-10-22T00:06:07.503Z,18.43
2022-10-22T00:08:07.497Z,18.45
2022-10-22T00:10:07.520Z,18.46
2022-10-22T00:13:07.505Z,18.46
2022-10-22T00:16:07.650Z,18.54
2022-10-22T00:18:07.542Z,18.51
2022-10-22T00:21:07.664Z,18.54
2022-10-22T00:23:07.537Z,18.59
2022-10-22T00:26:07.589Z,18.62
2022-10-22T00:29:07.531Z,18.62
2022-10-22T00:31:07.576Z,18.64
2022-10-22T00:34:07.571Z,18.62
2022-10-22T00:37:07.529Z,18.64
2022-10-22T00:39:07.530Z,18.65
2022-10-22T00:42:07.667Z,18.64
2022-10-22T00:45:07.538Z,18.53
2022-10-22T00:47:07.667Z,18.45
2022-10-22T00:49:07.578Z,18.42
2022-10-22T00:52:07.574Z,18.41
2022-10-22T00:54:07.713Z,18.42
2022-10-22T00:57:07.546Z,18.42
2022-10-22T01:02:07.629Z,18.35
2022-10-22T01:05:07.525Z,18.32
2022-10-22T01:08:07.741Z,18.26
2022-10-22T01:10:28.082Z,18.29
2022-10-22T01:13:28.500Z,18.32
2022-10-22T01:15:29.408Z,18.36
2022-10-22T01:18:07.565Z,18.39
2022-10-22T01:20:07.581Z,18.36
2022-10-22T01:23:07.521Z,18.41
2022-10-22T01:25:12.062Z,18.4
2022-10-22T01:28:07.512Z,18.41
2022-10-22T01:31:07.639Z,18.43
2022-10-22T01:33:07.524Z,18.45
2022-10-22T01:36:07.672Z,18.45
2022-10-22T01:38:07.533Z,18.42
2022-10-22T01:40:07.541Z,18.41
2022-10-22T01:42:07.673Z,18.37
2022-10-22T01:45:07.546Z,18.37
2022-10-22T01:47:07.669Z,18.39
2022-10-22T01:50:07.546Z,18.44
2022-10-22T01:52:07.597Z,18.45
2022-10-22T01:55:07.544Z,18.48
2022-10-22T01:58:07.631Z,18.51
2022-10-22T02:00:07.556Z,18.53
2022-10-22T02:03:07.741Z,18.49
2022-10-22T02:05:07.582Z,18.49
2022-10-22T02:07:07.566Z,18.45
2022-10-22T02:10:07.542Z,18.46
2022-10-22T02:12:07.599Z,18.5
2022-10-22T02:14:07.583Z,18.53
2022-10-22T02:17:07.589Z,18.51
2022-10-22T02:20:07.531Z,18.53
2022-10-22T02:22:07.559Z,18.56
2022-10-22T02:25:18.312Z,18.54
2022-10-22T02:28:07.539Z,18.53
2022-10-22T02:30:07.919Z,18.53
2022-10-22T02:33:07.510Z,18.54
2022-10-22T02:36:07.548Z,18.51
2022-10-22T02:39:07.570Z,18.52
2022-10-22T02:42:07.556Z,18.51
2022-10-22T02:45:07.544Z,18.51
2022-10-22T02:47:07.618Z,18.49
2022-10-22T02:50:09.372Z,18.37
2022-10-22T02:53:07.862Z,18.28
2022-10-22T02:56:07.753Z,18.19
2022-10-22T02:58:07.585Z,18.18
2022-10-22T03:01:08.708Z,18.17
2022-10-22T03:03:07.576Z,18.17
2022-10-22T03:05:07.617Z,18.17
2022-10-22T03:08:07.569Z,18.12
2022-10-22T03:10:07.989Z,18.14
2022-10-22T03:13:08.175Z,18.18
2022-10-22T03:16:07.551Z,18.17
2022-10-22T03:18:07.597Z,18.17
2022-10-22T03:21:07.522Z,18.17
2022-10-22T03:23:07.633Z,18.19
2022-10-22T03:26:07.566Z,18.2
2022-10-22T03:28:07.544Z,18.23
2022-10-22T03:31:07.571Z,18.26
2022-10-22T03:34:07.718Z,18.29
2022-10-22T03:37:07.575Z,18.33
2022-10-22T03:40:07.530Z,18.37
2022-10-22T03:42:07.578Z,18.42
2022-10-22T03:45:07.610Z,18.44
2022-10-22T03:47:07.643Z,18.46
2022-10-22T03:49:07.557Z,18.45
2022-10-22T03:52:07.676Z,18.45
2022-10-22T03:54:07.579Z,18.46
2022-10-22T03:57:07.670Z,18.49
2022-10-22T04:00:07.582Z,18.45
2022-10-22T04:02:07.652Z,18.44
2022-10-22T04:06:07.554Z,18.35
2022-10-22T04:09:07.633Z,18.24
2022-10-22T04:12:07.532Z,18.27
2022-10-22T04:14:07.957Z,18.21
2022-10-22T04:17:07.566Z,18.2
2022-10-22T04:19:08.032Z,18.24
2022-10-22T04:22:07.612Z,18.2
2022-10-22T04:25:07.894Z,18.19
2022-10-22T04:28:07.561Z,18.18
2022-10-22T04:30:07.736Z,18.16
2022-10-22T04:33:07.609Z,18.11
2022-10-22T04:36:07.579Z,18.09
2022-10-22T04:39:07.567Z,18.15
2022-10-22T04:41:07.592Z,18.2
2022-10-22T04:44:09.914Z,18.17
2022-10-22T04:46:07.627Z,18.09
2022-10-22T04:49:07.588Z,18.16
2022-10-22T04:52:07.574Z,18.23
2022-10-22T04:54:07.617Z,18.25
2022-10-22T04:57:07.584Z,18.26
2022-10-22T05:00:07.567Z,18.27
2022-10-22T05:03:07.577Z,18.27
2022-10-22T05:05:07.578Z,18.24
2022-10-22T05:08:07.589Z,18.23
2022-10-22T05:11:07.632Z,18.23
2022-10-22T05:13:08.141Z,18.25
2022-10-22T05:16:07.607Z,18.23
2022-10-22T05:19:07.584Z,18.2
2022-10-22T05:22:07.593Z,18.15
2022-10-22T05:24:07.597Z,18.04
2022-10-22T05:27:07.676Z,17.95
2022-10-22T05:30:07.561Z,17.98
2022-10-22T05:32:07.610Z,18.03
2022-10-22T05:35:07.590Z,18.03
2022-10-22T05:38:07.842Z,18.03
2022-10-22T05:40:12.810Z,18.04
2022-10-22T05:43:07.582Z,18.04
2022-10-22T05:45:07.750Z,18.03
2022-10-22T05:47:08.311Z,18.04
2022-10-22T05:50:07.737Z,18.02
2022-10-22T05:53:07.557Z,18
2022-10-22T05:55:07.960Z,18.02
2022-10-22T05:58:07.586Z,18
2022-10-22T06:00:09.618Z,17.99
2022-10-22T06:02:07.646Z,17.89
2022-10-22T06:04:07.642Z,17.75
2022-10-22T06:07:07.616Z,17.75
2022-10-22T06:10:07.616Z,17.84
2022-10-22T06:13:07.568Z,17.87
2022-10-22T06:15:07.572Z,17.89
2022-10-22T06:18:07.554Z,17.9
2022-10-22T06:20:07.583Z,17.91
2022-10-22T06:23:07.576Z,17.92
2022-10-22T06:25:07.581Z,17.93
2022-10-22T06:27:07.585Z,17.92
2022-10-22T06:29:07.581Z,17.93
2022-10-22T06:31:07.603Z,17.91
2022-10-22T06:34:07.566Z,17.9
2022-10-22T06:36:07.813Z,17.89
2022-10-22T06:39:08.626Z,17.87
2022-10-22T06:42:07.577Z,17.87
2022-10-22T06:44:07.650Z,17.87
2022-10-22T06:48:07.612Z,17.86
2022-10-22T06:51:07.649Z,17.86
2022-10-22T06:54:07.591Z,17.84
2022-10-22T06:57:07.562Z,17.84
2022-10-22T06:59:07.647Z,17.86
2022-10-22T07:01:07.679Z,17.86
2022-10-22T07:04:07.583Z,17.86
2022-10-22T07:07:07.635Z,17.86
2022-10-22T07:10:07.593Z,17.86
2022-10-22T07:12:07.647Z,17.85
2022-10-22T07:15:07.636Z,17.84
2022-10-22T07:18:07.598Z,17.84
2022-10-22T07:20:07.585Z,17.84
2022-10-22T07:22:07.589Z,17.85
2022-10-22T07:24:07.600Z,17.85
2022-10-22T07:27:09.362Z,17.85
2022-10-22T07:30:07.742Z,17.85
2022-10-22T07:33:07.586Z,17.86
2022-10-22T07:36:07.606Z,17.87
2022-10-22T07:38:07.584Z,17.87
2022-10-22T07:40:08.317Z,17.87
2022-10-22T07:42:07.614Z,17.87
2022-10-22T07:45:07.584Z,17.86
2022-10-22T07:48:07.606Z,17.87
2022-10-22T07:50:07.610Z,17.86
2022-10-22T07:52:07.827Z,17.87
2022-10-22T07:54:07.881Z,17.87
2022-10-22T07:57:08.069Z,17.89
2022-10-22T08:00:07.597Z,17.87
2022-10-22T08:02:08.662Z,17.89
2022-10-22T08:05:07.557Z,17.87
2022-10-22T08:07:07.585Z,17.89
2022-10-22T08:09:07.622Z,17.87
2022-10-22T08:11:07.687Z,17.89
2022-10-22T08:14:07.702Z,17.89
2022-10-22T08:17:07.586Z,17.91
2022-10-22T08:20:07.710Z,17.93
2022-10-22T08:22:07.612Z,17.93
2022-10-22T08:25:08.012Z,17.93
2022-10-22T08:27:07.658Z,17.94
2022-10-22T08:30:07.979Z,17.94
2022-10-22T08:33:07.627Z,17.96
2022-10-22T08:36:07.629Z,18.01
2022-10-22T08:40:12.156Z,18.03
2022-10-22T08:41:07.691Z,18.04
2022-10-22T08:44:07.633Z,18.07
2022-10-22T08:50:07.637Z,18.07
2022-10-22T08:53:07.591Z,18.04
2022-10-22T08:55:07.592Z,18.04
2022-10-22T08:58:07.692Z,18.03
2022-10-22T09:01:07.592Z,18.04
2022-10-22T09:03:07.626Z,18.04
2022-10-22T09:05:10.050Z,18.06
2022-10-22T09:08:07.638Z,18.09
2022-10-22T09:10:07.673Z,18.1
2022-10-22T09:13:07.606Z,18.12
2022-10-22T09:16:07.618Z,18.17
2022-10-22T09:18:07.883Z,18.19
2022-10-22T09:21:07.588Z,18.21
2022-10-22T09:23:07.660Z,18.26
2022-10-22T09:26:07.672Z,18.29
2022-10-22T09:29:07.598Z,18.34
2022-10-22T09:32:07.705Z,18.37
2022-10-22T09:35:07.624Z,18.43
2022-10-22T09:38:07.634Z,18.46
2022-10-22T09:40:08.121Z,18.5
2022-10-22T09:43:07.633Z,18.54
2022-10-22T09:45:07.749Z,18.57
2022-10-22T09:48:07.649Z,18.62
2022-10-22T09:51:07.654Z,18.62
2022-10-22T09:54:07.616Z,18.6
2022-10-22T09:56:07.645Z,18.64
2022-10-22T09:58:07.668Z,18.66
2022-10-22T10:01:07.703Z,18.67
2022-10-22T10:04:09.757Z,18.7
2022-10-22T10:07:07.663Z,18.79
2022-10-22T10:10:07.624Z,18.87
2022-10-22T10:12:07.646Z,18.95
2022-10-22T10:15:07.630Z,19.02
2022-10-22T10:18:07.653Z,19.04
2022-10-22T10:21:07.694Z,19.09
2022-10-22T10:23:07.722Z,19.14
2022-10-22T10:26:07.643Z,19.2
2022-10-22T10:28:07.781Z,19.27
2022-10-22T10:31:07.665Z,19.37
2022-10-22T10:33:07.756Z,19.45
2022-10-22T10:36:07.653Z,19.56
2022-10-22T10:39:07.651Z,19.7
2022-10-22T10:42:07.660Z,19.81
2022-10-22T10:45:07.659Z,19.92
2022-10-22T10:48:07.614Z,20.03
2022-10-22T10:50:15.212Z,20.12
2022-10-22T10:53:07.714Z,20.36
2022-10-22T10:56:07.842Z,20.58
2022-10-22T10:58:07.668Z,20.7
2022-10-22T11:01:07.777Z,20.83
2022-10-22T11:04:07.634Z,20.99
2022-10-22T11:06:07.838Z,21.1
2022-10-22T11:08:07.675Z,21.15
2022-10-22T11:11:07.845Z,21.14
2022-10-22T11:13:07.665Z,21.16
2022-10-22T11:16:07.733Z,21.25
2022-10-22T11:18:07.661Z,21.34
2022-10-22T11:21:08.875Z,21.49
2022-10-22T11:24:07.606Z,21.63
2022-10-22T11:26:07.751Z,21.67
2022-10-22T11:29:07.669Z,21.64
2022-10-22T11:32:07.646Z,21.61
2022-10-22T11:35:07.635Z,21.64
2022-10-22T11:38:07.655Z,21.68
2022-10-22T11:40:07.676Z,21.67
2022-10-22T11:43:07.649Z,21.65
2022-10-22T11:45:07.659Z,21.63
2022-10-22T11:48:07.659Z,21.63
2022-10-22T11:51:07.660Z,21.59
2022-10-22T11:54:07.656Z,21.58
2022-10-22T11:56:07.667Z,21.52
2022-10-22T11:58:07.739Z,21.5
2022-10-22T12:00:07.721Z,21.47
2022-10-22T12:03:07.641Z,21.5
2022-10-22T12:05:07.693Z,21.55
2022-10-22T12:08:08.255Z,21.62
2022-10-22T12:11:07.646Z,21.72
2022-10-22T12:13:07.672Z,21.79
2022-10-22T12:15:07.728Z,21.83
2022-10-22T12:17:07.753Z,21.9
2022-10-22T12:20:07.754Z,21.99
2022-10-22T12:23:07.696Z,22.1
2022-10-22T12:25:07.931Z,22.24
2022-10-22T12:28:07.694Z,22.39
2022-10-22T12:30:07.771Z,22.46
2022-10-22T12:33:07.645Z,22.57
2022-10-22T12:36:07.673Z,22.64
2022-10-22T12:39:07.673Z,22.72
2022-10-22T12:42:09.647Z,22.91
2022-10-22T12:45:07.670Z,23.13
2022-10-22T12:47:07.787Z,23.24
2022-10-22T12:50:07.676Z,23.34
2022-10-22T12:52:08.815Z,23.43
2022-10-22T12:55:07.678Z,23.62
2022-10-22T12:57:07.680Z,23.73
2022-10-22T12:59:07.829Z,23.9
2022-10-22T13:02:09.051Z,24.05
2022-10-22T13:04:07.721Z,23.96
2022-10-22T13:07:07.694Z,23.85
2022-10-22T13:09:07.830Z,23.86
2022-10-22T13:12:07.676Z,23.72
2022-10-22T13:15:07.701Z,23.54
2022-10-22T13:18:07.678Z,23.38
2022-10-22T13:20:07.732Z,23.34
2022-10-22T13:23:07.682Z,23.23
2022-10-22T13:26:07.685Z,23.13
2022-10-22T13:28:07.673Z,23.06
2022-10-22T13:31:07.712Z,22.94
2022-10-22T13:34:09.701Z,22.83
2022-10-22T13:37:07.663Z,22.77
2022-10-22T13:40:10.865Z,22.71
2022-10-22T13:43:07.735Z,22.67
2022-10-22T13:46:08.026Z,22.68
2022-10-22T13:48:23.043Z,22.65
2022-10-22T13:51:08.121Z,22.64
2022-10-22T13:53:07.791Z,22.61
2022-10-22T13:56:07.702Z,22.66
2022-10-22T13:58:07.746Z,22.66
2022-10-22T14:01:07.703Z,22.68
2022-10-22T14:03:07.957Z,22.76
2022-10-22T14:06:07.721Z,22.83
2022-10-22T14:09:07.748Z,22.99
2022-10-22T14:11:07.662Z,23.1
2022-10-22T14:13:08.193Z,23.23
2022-10-22T14:15:07.729Z,23.37
2022-10-22T14:18:07.692Z,23.57
2022-10-22T14:21:07.677Z,23.77
2022-10-22T14:24:09.584Z,23.98
2022-10-22T14:26:07.685Z,24.1
2022-10-22T14:29:10.111Z,24.32
2022-10-22T14:31:07.741Z,24.44
2022-10-22T14:34:07.723Z,24.6
2022-10-22T14:37:07.695Z,24.78
2022-10-22T14:39:08.718Z,24.95
2022-10-22T14:42:07.695Z,25.22
2022-10-22T14:44:07.695Z,25.37
2022-10-22T14:46:07.672Z,25.51
2022-10-22T14:48:07.905Z,25.5
2022-10-22T14:50:07.732Z,25.56
2022-10-22T14:53:07.671Z,25.59
2022-10-22T14:55:07.681Z,25.58
2022-10-22T14:57:10.806Z,25.59
2022-10-22T15:00:07.813Z,25.66
2022-10-22T15:02:07.725Z,25.77
2022-10-22T15:05:07.875Z,25.79
2022-10-22T15:08:07.685Z,25.74
2022-10-22T15:11:07.705Z,25.76
2022-10-22T15:13:07.778Z,25.75
2022-10-22T15:15:07.709Z,25.74
2022-10-22T15:18:07.731Z,25.73
2022-10-22T15:21:07.713Z,25.82
2022-10-22T15:23:07.740Z,25.81
2022-10-22T15:26:07.801Z,25.75
2022-10-22T15:28:09.727Z,25.64
2022-10-22T15:30:08.156Z,25.54
2022-10-22T15:33:08.483Z,25.44
2022-10-22T15:36:07.712Z,25.26
2022-10-22T15:38:07.693Z,25.16
2022-10-22T15:40:07.774Z,25.04
2022-10-22T15:43:07.721Z,24.9
2022-10-22T15:45:07.715Z,24.8
2022-10-22T15:48:07.759Z,24.57
2022-10-22T15:51:07.721Z,24.31
2022-10-22T15:54:10.107Z,24.14
2022-10-22T15:57:07.683Z,23.99
2022-10-22T16:00:07.716Z,23.82
2022-10-22T16:02:07.702Z,23.72
2022-10-22T16:04:07.787Z,23.62
2022-10-22T16:07:07.718Z,23.48
2022-10-22T16:09:07.772Z,23.4
2022-10-22T16:12:07.683Z,23.27
2022-10-22T16:15:07.714Z,23.17
2022-10-22T16:17:07.716Z,23.13
2022-10-22T16:20:07.760Z,23.04
2022-10-22T16:23:07.825Z,22.95
2022-10-22T16:26:08.037Z,22.86
2022-10-22T16:29:07.697Z,22.79
2022-10-22T16:32:07.726Z,22.74
2022-10-22T16:34:08.805Z,22.71
2022-10-22T16:37:07.926Z,22.64
2022-10-22T16:40:08.435Z,22.56
2022-10-22T16:43:07.719Z,22.48
2022-10-22T16:45:07.790Z,22.42
2022-10-22T16:48:07.731Z,22.33
2022-10-22T16:50:07.752Z,22.27
2022-10-22T16:53:07.759Z,22.18
2022-10-22T16:55:08.416Z,22.1
2022-10-22T16:58:07.862Z,22
2022-10-22T17:01:07.772Z,21.9
2022-10-22T17:03:07.739Z,21.86
2022-10-22T17:06:07.997Z,21.8
2022-10-22T17:08:07.777Z,21.76
2022-10-22T17:10:07.791Z,21.72
2022-10-22T17:13:09.573Z,21.62
2022-10-22T17:15:07.774Z,21.58
2022-10-22T17:17:07.802Z,21.51
2022-10-22T17:20:07.760Z,21.44
2022-10-22T17:23:07.749Z,21.42
2022-10-22T17:25:07.802Z,21.37
2022-10-22T17:29:07.940Z,21.34
2022-10-22T17:31:08.279Z,21.33
2022-10-22T17:34:07.816Z,21.26
2022-10-22T17:37:08.029Z,21.16
2022-10-22T17:40:07.746Z,21.07
2022-10-22T17:43:08.590Z,21.05
2022-10-22T17:46:07.779Z,21.03
2022-10-22T17:49:07.843Z,20.96
2022-10-22T17:51:07.784Z,20.92
2022-10-22T17:54:09.041Z,20.86
2022-10-22T17:57:07.763Z,20.79
2022-10-22T17:59:07.905Z,20.81
2022-10-22T18:01:07.879Z,20.82
2022-10-22T18:04:07.881Z,20.75
2022-10-22T18:06:07.766Z,20.73
2022-10-22T18:09:07.773Z,20.67
2022-10-22T18:11:07.775Z,20.59
2022-10-22T18:14:07.787Z,20.53
2022-10-22T18:17:07.770Z,20.51
2022-10-22T18:20:07.982Z,20.51
2022-10-22T18:22:07.756Z,20.51
2022-10-22T18:25:07.844Z,20.55
2022-10-22T18:27:07.786Z,20.52
2022-10-22T18:29:07.805Z,20.45
2022-10-22T18:32:12.218Z,20.32
2022-10-22T18:34:07.801Z,20.28
2022-10-22T18:37:07.743Z,20.18
2022-10-22T18:39:07.756Z,20.2
2022-10-22T18:42:08.129Z,20.15
2022-10-22T18:45:07.762Z,20.07
2022-10-22T18:48:07.738Z,20
2022-10-22T18:50:07.741Z,19.96
2022-10-22T18:53:07.764Z,19.92
2022-10-22T18:56:07.750Z,19.9
2022-10-22T18:59:07.748Z,19.92
2022-10-22T19:01:07.821Z,19.91
2022-10-22T19:04:07.749Z,19.95
2022-10-22T19:06:08.363Z,19.87
2022-10-22T19:09:08.013Z,19.93
2022-10-22T19:12:07.748Z,19.92
2022-10-22T19:14:08.086Z,19.96
2022-10-22T19:17:07.804Z,20.1
2022-10-22T19:20:07.835Z,20.11
2022-10-22T19:23:07.774Z,20.12
2022-10-22T19:25:08.359Z,20.1
2022-10-22T19:28:07.769Z,20.1
2022-10-22T19:31:07.784Z,20.12
2022-10-22T19:34:07.889Z,20.12
2022-10-22T19:36:07.788Z,20.11
2022-10-22T19:39:07.950Z,20.04
2022-10-22T19:41:07.769Z,20.03
2022-10-22T19:44:07.930Z,19.9
2022-10-22T19:46:07.791Z,19.85
2022-10-22T19:49:08.614Z,19.84
2022-10-22T19:52:08.126Z,19.85
2022-10-22T19:55:07.750Z,19.85
2022-10-22T19:57:07.784Z,19.79
2022-10-22T20:00:07.952Z,19.62
2022-10-22T20:03:07.856Z,19.59
2022-10-22T20:06:08.033Z,19.6
2022-10-22T20:08:07.809Z,19.54
2022-10-22T20:10:07.834Z,19.58
2022-10-22T20:13:07.772Z,19.54
2022-10-22T20:15:07.856Z,19.5
2022-10-22T20:18:07.906Z,19.42
2022-10-22T20:20:07.797Z,19.35
2022-10-22T20:23:08.671Z,19.28
2022-10-22T20:26:07.768Z,19.29
2022-10-22T20:28:07.818Z,19.23
2022-10-22T20:31:07.780Z,19.19
2022-10-22T20:34:09.479Z,19.15
2022-10-22T20:37:07.793Z,19.11
2022-10-22T20:43:09.463Z,19.16
2022-10-22T20:46:45.864Z,19.04
2022-10-22T20:48:08.138Z,19.01
2022-10-22T20:51:07.815Z,18.98
2022-10-22T20:54:07.762Z,19.01
2022-10-22T20:56:07.796Z,19.01
2022-10-22T20:59:07.792Z,19.06
2022-10-22T21:01:07.933Z,19.04
2022-10-22T21:04:07.801Z,19.01
2022-10-22T21:06:07.844Z,19.01
2022-10-22T21:09:07.849Z,18.98
2022-10-22T21:11:07.820Z,18.96
2022-10-22T21:14:07.773Z,18.91
2022-10-22T21:16:07.804Z,18.93
2022-10-22T21:19:07.766Z,18.89
2022-10-22T21:21:07.826Z,18.87
2022-10-22T21:24:07.764Z,18.87
2022-10-22T21:26:07.787Z,18.83
2022-10-22T21:29:07.801Z,18.77
2022-10-22T21:31:07.792Z,18.75
2022-10-22T21:33:07.801Z,18.7
2022-10-22T21:35:07.816Z,18.77
2022-10-22T21:38:07.762Z,18.69
2022-10-22T21:40:07.808Z,18.71
2022-10-22T21:43:07.774Z,18.7
2022-10-22T21:45:10.548Z,18.68
2022-10-22T21:47:08.876Z,18.69
2022-10-22T21:50:07.852Z,18.64
2022-10-22T21:52:07.838Z,18.66
2022-10-22T21:55:07.787Z,18.77
2022-10-22T21:58:07.858Z,18.82
2022-10-22T22:01:07.806Z,18.85
2022-10-22T22:04:07.797Z,18.87
2022-10-22T22:07:07.768Z,18.86
2022-10-22T22:10:07.779Z,18.89
2022-10-22T22:13:07.796Z,18.92
2022-10-22T22:15:07.817Z,18.92
2022-10-22T22:18:07.789Z,18.89
2022-10-22T22:20:07.833Z,18.86
2022-10-22T22:23:07.813Z,18.79
2022-10-22T22:25:07.842Z,18.79
2022-10-22T22:28:07.795Z,18.78
2022-10-22T22:30:07.819Z,18.74
2022-10-22T22:33:07.838Z,18.65
2022-10-22T22:36:07.808Z,18.57
2022-10-22T22:38:07.819Z,18.57
2022-10-22T22:42:07.857Z,18.53
2022-10-22T22:45:07.836Z,18.6
2022-10-22T22:48:07.834Z,18.6
2022-10-22T22:51:07.867Z,18.57
2022-10-22T22:53:07.863Z,18.58
2022-10-22T22:56:07.819Z,18.57
2022-10-22T22:59:07.855Z,18.56
2022-10-22T23:02:07.813Z,18.61
2022-10-22T23:05:07.870Z,18.62
2022-10-22T23:08:07.806Z,18.57
2022-10-22T23:10:10.959Z,18.58
2022-10-22T23:13:07.864Z,18.56
2022-10-22T23:15:07.859Z,18.52
2022-10-22T23:17:08.368Z,18.48
2022-10-22T23:20:07.843Z,18.48
2022-10-22T23:22:07.858Z,18.44
2022-10-22T23:25:07.858Z,18.37
2022-10-22T23:28:07.799Z,18.37
2022-10-22T23:30:07.843Z,18.41
2022-10-22T23:32:07.836Z,18.43
2022-10-22T23:35:07.875Z,18.44
2022-10-22T23:38:07.788Z,18.41
2022-10-22T23:40:07.858Z,18.34
2022-10-22T23:43:07.863Z,18.33
2022-10-22T23:46:07.831Z,18.29
2022-10-22T23:48:07.885Z,18.24
2022-10-22T23:51:07.808Z,18.17
2022-10-22T23:53:08.397Z,18.17
2022-10-22T23:56:07.912Z,18.1
2022-10-22T23:59:07.927Z,18.04
